Time;durP1;ratioP1;P1;durP2;ratioP2;P2;SDS_P1;SDS_P2;PMS_P1;PMS_P2;Temp;Humidity;BMP_temperature;BMP_pressure;BME280_temperature;BME280_humidity;BME280_pressure;Samples;Min_cycle;Max_cycle;Signal;HPM_P1;HPM_P2
2022/05/25 00:01:36;;;;;;;46.47;34.28;;;16.10;99.90;;;;;;10480085;28;20033;-81
2022/05/25 00:06:37;;;;;;;71.45;43.92;;;16.00;99.90;;;;;;10451386;28;20060;-81
2022/05/25 00:11:38;;;;;;;48.67;35.10;;;16.00;99.90;;;;;;10460348;28;20041;-81
2022/05/25 00:16:39;;;;;;;49.30;35.85;;;16.00;99.90;;;;;;10463849;28;20104;-81
2022/05/25 00:21:39;;;;;;;52.30;35.58;;;15.90;99.90;;;;;;10492167;28;20028;-81
2022/05/25 00:26:40;;;;;;;56.70;38.13;;;15.80;99.90;;;;;;10491982;28;20487;-81
2022/05/25 00:31:41;;;;;;;74.88;43.28;;;15.80;99.90;;;;;;10473010;28;20120;-81
2022/05/25 00:36:42;;;;;;;47.83;34.35;;;15.80;99.90;;;;;;10450274;28;20069;-81
2022/05/25 00:41:42;;;;;;;89.32;49.97;;;15.70;99.90;;;;;;10481245;28;20032;-81
2022/05/25 00:46:44;;;;;;;96.32;52.75;;;15.70;99.90;;;;;;10492028;28;20074;-81
2022/05/25 00:51:51;;;;;;;77.32;46.58;;;15.60;99.90;;;;;;10460102;28;20119;-81
2022/05/25 00:56:55;;;;;;;53.53;37.03;;;15.60;99.90;;;;;;10459836;28;20094;-81
2022/05/25 01:01:56;;;;;;;56.05;37.80;;;15.60;99.90;;;;;;10466230;28;20123;-80
2022/05/25 01:07:04;;;;;;;57.92;41.58;;;15.60;99.90;;;;;;10449262;28;20067;-81
2022/05/25 01:12:30;;;;;;;69.15;42.60;;;15.60;99.90;;;;;;10490302;28;20032;-80
2022/05/25 01:17:36;;;;;;;105.55;53.47;;;15.50;99.90;;;;;;10476723;28;20064;-80
2022/05/25 01:22:58;;;;;;;65.45;42.40;;;15.50;99.90;;;;;;10488855;28;20850;-81
2022/05/25 01:28:09;;;;;;;55.97;38.63;;;15.50;99.90;;;;;;10489374;28;20108;-80
2022/05/25 01:33:15;;;;;;;99.55;50.53;;;15.50;99.90;;;;;;10488374;28;20094;-80
2022/05/25 01:38:33;;;;;;;88.82;52.63;;;15.50;99.90;;;;;;10482500;28;20036;-80
2022/05/25 01:43:47;;;;;;;57.38;39.55;;;15.50;99.90;;;;;;10464811;28;20056;-80
2022/05/25 01:48:49;;;;;;;76.80;46.25;;;15.50;99.90;;;;;;10485014;28;20024;-80
2022/05/25 01:53:55;;;;;;;63.15;41.13;;;15.60;99.90;;;;;;10485714;28;20037;-80
2022/05/25 01:59:00;;;;;;;95.22;47.08;;;15.60;99.90;;;;;;10489013;28;20468;-80
2022/05/25 02:09:19;;;;;;;69.43;41.75;;;15.50;99.90;;;;;;10473086;28;20439;-80
2022/05/25 02:14:20;;;;;;;48.10;34.85;;;15.50;99.90;;;;;;10496245;22;20064;-80
2022/05/25 02:19:31;;;;;;;75.97;43.90;;;15.50;99.90;;;;;;10456936;28;20025;-80
2022/05/25 02:24:40;;;;;;;53.85;37.90;;;15.50;99.90;;;;;;10468387;28;20037;-80
2022/05/25 02:29:47;;;;;;;50.63;36.30;;;15.50;99.90;;;;;;10482697;28;20443;-80
2022/05/25 02:34:51;;;;;;;50.75;36.80;;;15.50;99.90;;;;;;10445495;28;20053;-80
2022/05/25 02:39:55;;;;;;;73.07;42.80;;;15.50;99.90;;;;;;10463108;28;20029;-80
2022/05/25 02:44:56;;;;;;;60.95;40.58;;;15.60;99.90;;;;;;10446451;28;20580;-81
2022/05/25 02:49:56;;;;;;;93.20;51.80;;;15.60;99.90;;;;;;10462361;28;20036;-81
2022/05/25 02:54:57;;;;;;;58.50;40.58;;;15.60;99.90;;;;;;10466652;28;20556;-81
2022/05/25 02:59:58;;;;;;;50.90;37.50;;;15.60;99.90;;;;;;10486492;28;20037;-80
2022/05/25 03:04:59;;;;;;;87.82;44.53;;;15.70;99.90;;;;;;10486460;28;20033;-82
2022/05/25 03:10:00;;;;;;;52.80;37.70;;;15.70;99.90;;;;;;10493853;28;20353;-81
2022/05/25 03:15:00;;;;;;;57.88;39.38;;;15.60;99.90;;;;;;10493555;28;20044;-81
2022/05/25 03:20:01;;;;;;;48.17;35.92;;;15.70;99.90;;;;;;10475737;28;20036;-81
2022/05/25 03:25:01;;;;;;;51.25;38.15;;;15.70;99.90;;;;;;10493756;28;20153;-82
2022/05/25 03:30:04;;;;;;;77.93;46.55;;;15.80;99.90;;;;;;10491686;28;20089;-82
2022/05/25 03:35:06;;;;;;;79.70;47.35;;;15.90;99.90;;;;;;10479869;28;20040;-81
2022/05/25 03:40:11;;;;;;;71.75;47.95;;;15.90;99.90;;;;;;10466872;28;20040;-81
2022/05/25 03:45:14;;;;;;;47.33;36.40;;;16.00;99.90;;;;;;10490311;28;20479;-81
2022/05/25 03:50:18;;;;;;;57.67;40.63;;;16.10;99.90;;;;;;10490464;28;20035;-80
2022/05/25 03:55:18;;;;;;;72.28;46.90;;;16.20;99.90;;;;;;10490727;28;20123;-81
2022/05/25 04:00:19;;;;;;;61.42;43.03;;;16.20;99.90;;;;;;10492380;28;20036;-80
2022/05/25 04:05:20;;;;;;;76.47;48.45;;;16.20;99.90;;;;;;10489089;28;20462;-80
2022/05/25 04:10:22;;;;;;;70.88;45.53;;;16.20;99.90;;;;;;10471582;28;20115;-79
2022/05/25 04:15:26;;;;;;;59.30;41.67;;;16.20;99.90;;;;;;10480431;28;20131;-80
2022/05/25 04:20:29;;;;;;;73.20;47.50;;;16.20;99.90;;;;;;10475663;28;20488;-80
2022/05/25 04:25:30;;;;;;;59.38;41.33;;;16.20;99.90;;;;;;10489736;22;20060;-81
2022/05/25 04:30:30;;;;;;;74.90;47.63;;;16.20;99.90;;;;;;10453226;28;20024;-81
2022/05/25 04:35:31;;;;;;;67.10;45.63;;;16.20;99.90;;;;;;10462621;28;20484;-80
2022/05/25 04:40:36;;;;;;;71.13;46.47;;;16.10;99.90;;;;;;10456782;28;20050;-80
2022/05/25 04:45:42;;;;;;;90.13;53.37;;;16.10;99.90;;;;;;10446844;28;20043;-80
2022/05/25 04:50:45;;;;;;;62.42;44.15;;;16.00;99.90;;;;;;10449188;28;20021;-80
2022/05/25 05:01:08;;;;;;;72.18;47.30;;;16.00;99.90;;;;;;10446960;28;20030;-80
2022/05/25 05:06:10;;;;;;;83.07;56.20;;;16.00;99.90;;;;;;10446612;28;20021;-80
2022/05/25 05:11:17;;;;;;;82.55;54.55;;;16.10;99.90;;;;;;10429356;28;20021;-80
2022/05/25 05:16:18;;;;;;;91.60;60.88;;;16.20;99.90;;;;;;10448256;28;20017;-80
2022/05/25 05:21:19;;;;;;;91.78;63.00;;;16.30;99.90;;;;;;10448522;28;20150;-80
2022/05/25 05:26:19;;;;;;;99.03;65.22;;;16.40;99.90;;;;;;10447557;28;20385;-80
2022/05/25 05:31:20;;;;;;;82.78;56.75;;;16.50;99.90;;;;;;10447276;28;20036;-80
2022/05/25 05:36:25;;;;;;;88.57;58.30;;;16.50;99.90;;;;;;10448510;28;20021;-79
2022/05/25 05:41:30;;;;;;;96.90;59.47;;;16.50;99.90;;;;;;10447828;28;20044;-79
2022/05/25 05:46:31;;;;;;;;;;;16.40;99.90;;;;;;10447886;28;20306;-79
2022/05/25 05:51:32;;;;;;;105.30;65.32;;;16.40;99.90;;;;;;10447030;28;20004;-79
2022/05/25 05:56:34;;;;;;;106.47;67.22;;;16.40;99.90;;;;;;10447447;28;20063;-79
2022/05/25 06:01:35;;;;;;;99.25;62.17;;;16.30;99.90;;;;;;10446652;28;20056;-79
2022/05/25 06:06:35;;;;;;;104.53;67.97;;;16.40;99.90;;;;;;10447081;28;20116;-79
2022/05/25 06:11:41;;;;;;;97.93;62.10;;;16.50;99.90;;;;;;10446419;28;20435;-80
2022/05/25 06:22:05;;;;;;;79.28;51.47;;;16.60;99.90;;;;;;10446316;28;19924;-80
2022/05/25 06:27:11;;;;;;;82.20;55.38;;;16.60;99.90;;;;;;10446132;28;20029;-79
2022/05/25 06:32:13;;;;;;;73.35;51.78;;;16.60;99.90;;;;;;10446130;28;20033;-79
2022/05/25 06:37:20;;;;;;;84.80;54.65;;;16.60;99.90;;;;;;10445942;28;20519;-79
2022/05/25 06:42:20;;;;;;;88.97;56.60;;;16.60;99.90;;;;;;10450238;28;20021;-79
2022/05/25 06:47:21;;;;;;;99.57;60.15;;;16.60;99.90;;;;;;10454274;28;20028;-79
2022/05/25 06:52:23;;;;;;;132.02;67.03;;;16.60;99.90;;;;;;10454084;28;20051;-78
2022/05/25 06:57:25;;;;;;;134.18;70.95;;;16.50;99.90;;;;;;10454294;28;20025;-79
2022/05/25 07:02:26;;;;;;;179.55;82.60;;;16.30;99.90;;;;;;10435340;28;20025;-79
2022/05/25 07:07:27;;;;;;;215.50;86.28;;;16.20;99.90;;;;;;10453393;28;20021;-79
2022/05/25 07:12:31;;;;;;;190.63;76.45;;;16.10;99.90;;;;;;10452894;28;20399;-80
2022/05/25 07:17:33;;;;;;;179.50;81.70;;;16.10;99.90;;;;;;10452984;28;20039;-81
2022/05/25 07:22:34;;;;;;;186.68;80.65;;;15.90;99.90;;;;;;10452334;28;20055;-81
2022/05/25 07:27:34;;;;;;;211.77;84.10;;;15.80;99.90;;;;;;10464052;28;20039;-82
2022/05/25 07:32:35;;;;;;;277.85;93.32;;;15.70;99.90;;;;;;10452877;28;20037;-82
2022/05/25 07:37:39;;;;;;;263.33;89.80;;;15.70;99.90;;;;;;10452999;28;20495;-83
2022/05/25 07:42:44;;;;;;;264.73;89.25;;;15.60;99.90;;;;;;10452582;28;20395;-83
2022/05/25 08:07:55;;;;;;;20.27;12.13;;;15.40;99.90;;;;;;10652159;27;20055;-84
2022/05/25 08:12:59;;;;;;;13.88;9.55;;;14.90;99.90;;;;;;10652314;27;20027;-82
2022/05/25 08:18:00;;;;;;;17.17;11.80;;;14.20;99.90;;;;;;10651278;27;20101;-85
2022/05/25 08:23:04;;;;;;;17.25;10.07;;;13.90;99.90;;;;;;10651276;27;20018;-84
2022/05/25 08:28:05;;;;;;;11.52;7.07;;;13.70;99.90;;;;;;10651558;27;20023;-83
2022/05/25 08:33:06;;;;;;;15.13;6.78;;;13.60;99.90;;;;;;10650057;27;20723;-83
2022/05/25 08:38:07;;;;;;;8.50;5.65;;;13.20;99.90;;;;;;10649507;27;20389;-85
2022/05/25 08:43:20;;;;;;;9.02;6.30;;;12.90;99.90;;;;;;10649363;27;20031;-84
2022/05/25 08:48:22;;;;;;;14.95;8.35;;;12.70;99.90;;;;;;10650341;27;20084;-87
2022/05/25 08:53:24;;;;;;;15.27;8.63;;;12.60;99.90;;;;;;10648845;27;20113;-85
2022/05/25 08:58:38;;;;;;;12.85;7.80;;;12.50;99.90;;;;;;10648433;27;20434;-84
2022/05/25 09:04:04;;;;;;;13.98;7.35;;;12.60;99.90;;;;;;10620188;27;20115;-82
2022/05/25 09:09:13;;;;;;;17.00;8.30;;;12.50;99.90;;;;;;10587837;27;20043;-84
2022/05/25 09:14:37;;;;;;;11.88;7.28;;;12.50;99.90;;;;;;10620970;27;20359;-85
2022/05/25 09:19:42;;;;;;;10.88;6.07;;;12.50;99.90;;;;;;10620811;27;20091;-83
2022/05/25 09:24:43;;;;;;;8.40;5.85;;;12.30;99.90;;;;;;10618670;27;20042;-83
2022/05/25 09:29:44;;;;;;;12.35;5.47;;;12.00;99.90;;;;;;10619818;27;20038;-83
2022/05/25 09:35:04;;;;;;;11.10;6.65;;;11.90;99.90;;;;;;10612929;27;20120;-83
2022/05/25 09:40:14;;;;;;;13.18;7.57;;;12.00;99.90;;;;;;10593505;27;20425;-83
2022/05/25 09:45:15;;;;;;;18.63;9.23;;;12.10;99.90;;;;;;10576652;27;20042;-83
2022/05/25 09:50:41;;;;;;;15.40;8.63;;;12.10;99.90;;;;;;10576844;28;20406;-84
2022/05/25 09:56:13;;;;;;;18.52;9.93;;;12.20;99.90;;;;;;10575045;28;20462;-84
2022/05/25 10:01:23;;;;;;;19.63;10.13;;;12.20;99.90;;;;;;10560023;27;20056;-84
2022/05/25 10:06:28;;;;;;;20.15;11.13;;;12.30;99.90;;;;;;10575852;28;20024;-84
2022/05/25 10:11:29;;;;;;;23.70;12.55;;;12.50;99.90;;;;;;10573463;28;20491;-84
2022/05/25 10:16:30;;;;;;;13.23;8.57;;;12.70;99.90;;;;;;10574137;28;20032;-83
2022/05/25 10:21:38;;;;;;;16.52;9.52;;;12.70;99.90;;;;;;10574728;28;20024;-82
2022/05/25 10:26:49;;;;;;;9.57;6.20;;;12.60;99.90;;;;;;10573629;28;20015;-82
2022/05/25 10:37:08;;;;;;;8.35;4.65;;;12.30;99.90;;;;;;10574437;28;20696;-83
2022/05/25 10:42:26;;;;;;;6.93;4.63;;;12.30;99.90;;;;;;10574060;28;20019;-82
2022/05/25 10:47:54;;;;;;;6.85;4.20;;;12.30;99.90;;;;;;10574838;28;20022;-82
2022/05/25 10:53:06;;;;;;;7.30;4.18;;;12.20;99.90;;;;;;10573843;28;20164;-82
2022/05/25 10:58:26;;;;;;;6.90;4.28;;;12.20;99.90;;;;;;10571975;28;20399;-83
2022/05/25 11:04:02;;;;;;;6.88;4.47;;;12.20;99.90;;;;;;10573834;28;20020;-82
2022/05/25 11:09:10;;;;;;;6.85;4.88;;;12.20;99.90;;;;;;10573073;28;20043;-82
2022/05/25 11:14:43;;;;;;;8.65;4.93;;;12.20;99.90;;;;;;10574313;28;20493;-82
2022/05/25 11:19:49;;;;;;;8.32;5.13;;;12.20;99.90;;;;;;10549527;28;20058;-82
2022/05/25 11:24:58;;;;;;;8.00;5.63;;;12.30;99.90;;;;;;10571332;28;20489;-82
2022/05/25 11:29:59;;;;;;;7.78;4.97;;;12.30;99.90;;;;;;10572115;28;20035;-83
2022/05/25 11:35:26;;;;;;;5.35;4.00;;;12.30;99.90;;;;;;10571139;28;20023;-81
2022/05/25 11:40:56;;;;;;;8.23;5.30;;;12.30;99.90;;;;;;10571027;28;20222;-81
2022/05/25 11:46:15;;;;;;;6.85;4.30;;;12.20;99.90;;;;;;10572562;28;20644;-82
2022/05/25 11:51:23;;;;;;;6.97;4.35;;;12.30;99.90;;;;;;10572388;28;20060;-82
2022/05/25 11:57:12;;;;;;;8.05;5.72;;;12.20;99.90;;;;;;10571801;28;20068;-82
2022/05/25 12:02:36;;;;;;;7.10;4.50;;;12.20;99.90;;;;;;10533278;28;20405;-82
2022/05/25 12:08:07;;;;;;;7.20;4.38;;;12.30;99.90;;;;;;10570639;28;20394;-82
2022/05/25 12:13:22;;;;;;;6.97;4.60;;;12.20;99.90;;;;;;10571484;28;20039;-81
2022/05/25 12:18:34;;;;;;;5.88;4.07;;;12.30;99.90;;;;;;10570597;28;20039;-81
2022/05/25 12:23:42;;;;;;;8.95;5.57;;;12.40;99.90;;;;;;10571316;28;20541;-82
2022/05/25 12:28:46;;;;;;;8.38;4.60;;;12.40;99.90;;;;;;10571171;28;20031;-82
2022/05/25 12:33:47;;;;;;;7.85;4.80;;;12.50;99.90;;;;;;10571192;28;20107;-81
2022/05/25 12:38:48;;;;;;;5.40;3.85;;;12.50;99.90;;;;;;10577698;28;20390;-82
2022/05/25 12:43:52;;;;;;;7.60;4.28;;;12.50;99.90;;;;;;10577668;28;20028;-82
2022/05/25 12:48:58;;;;;;;6.60;4.22;;;12.50;99.90;;;;;;10578331;28;20878;-83
2022/05/25 12:54:01;;;;;;;;;;;12.50;99.90;;;;;;10589117;27;20062;-82
2022/05/25 12:59:11;;;;;;;8.55;5.43;;;12.60;99.90;;;;;;10580086;27;19919;-83
2022/05/25 13:04:18;;;;;;;5.75;3.97;;;12.80;99.90;;;;;;10601512;27;20677;-81
2022/05/25 13:09:41;;;;;;;8.98;5.15;;;12.80;99.90;;;;;;10620667;27;20043;-82
2022/05/25 13:14:42;;;;;;;5.90;4.20;;;12.90;99.90;;;;;;10620390;27;20026;-82
2022/05/25 13:19:44;;;;;;;7.75;4.53;;;13.10;99.90;;;;;;10617687;27;20031;-82
2022/05/25 13:25:08;;;;;;;6.90;4.63;;;13.10;99.90;;;;;;10620275;27;20050;-81
2022/05/25 13:30:26;;;;;;;4.35;3.28;;;13.30;99.90;;;;;;10618193;27;20041;-80
2022/05/25 13:35:39;;;;;;;5.22;3.80;;;13.40;99.90;;;;;;10587913;27;20051;-81
2022/05/25 13:40:48;;;;;;;8.95;5.53;;;13.50;99.90;;;;;;10617684;27;20102;-81
2022/05/25 13:45:48;;;;;;;6.55;4.05;;;13.50;99.90;;;;;;10588155;27;20032;-81
2022/05/25 13:50:56;;;;;;;4.63;3.47;;;13.50;99.90;;;;;;10576017;27;20028;-81
2022/05/25 13:56:11;;;;;;;7.80;5.85;;;13.40;99.90;;;;;;10576271;27;20062;-81
2022/05/25 14:01:19;;;;;;;5.13;2.90;;;13.40;99.90;;;;;;10574103;28;20066;-80
2022/05/25 14:06:19;;;;;;;8.25;5.30;;;13.40;99.90;;;;;;10611972;27;20416;-80
2022/05/25 14:11:33;;;;;;;5.50;3.20;;;13.50;99.90;;;;;;10617465;27;20043;-82
2022/05/25 14:16:34;;;;;;;4.78;3.22;;;13.50;99.90;;;;;;10590073;27;20031;-81
2022/05/25 14:21:47;;;;;;;4.00;3.08;;;13.60;99.90;;;;;;10594949;27;20024;-81
2022/05/25 14:27:20;;;;;;;5.43;3.47;;;13.60;99.90;;;;;;10603689;27;20537;-81
2022/05/25 14:32:30;;;;;;;5.93;4.28;;;13.70;99.90;;;;;;10570497;27;20130;-81
2022/05/25 14:37:35;;;;;;;8.88;5.78;;;13.60;99.90;;;;;;10575536;27;20482;-81
2022/05/25 14:42:54;;;;;;;6.70;3.60;;;13.70;99.90;;;;;;10574258;28;20028;-81
2022/05/25 14:48:05;;;;;;;3.97;2.72;;;13.70;99.90;;;;;;10585347;27;20031;-81
2022/05/25 14:53:35;;;;;;;8.35;3.80;;;13.60;99.90;;;;;;10574663;27;20024;-81
2022/05/25 14:58:47;;;;;;;4.15;2.90;;;13.80;99.90;;;;;;10582948;27;20146;-79
2022/05/25 15:03:52;;;;;;;3.13;2.83;;;14.00;99.90;;;;;;10607818;27;20039;-84
2022/05/25 15:08:52;;;;;;;4.72;3.15;;;13.90;99.90;;;;;;10601028;27;20035;-81
2022/05/25 15:19:25;;;;;;;8.20;5.57;;;13.90;99.90;;;;;;10598278;27;20043;-81
2022/05/25 15:24:26;;;;;;;7.00;3.67;;;13.90;99.90;;;;;;10579267;27;20377;-80
2022/05/25 15:29:31;;;;;;;5.05;3.70;;;13.80;99.90;;;;;;10591394;27;20414;-82
2022/05/25 15:34:32;;;;;;;7.25;4.22;;;13.70;99.90;;;;;;10605487;27;20150;-81
2022/05/25 15:39:32;;;;;;;11.10;7.38;;;13.70;99.90;;;;;;10578253;27;20178;-81
2022/05/25 15:44:33;;;;;;;9.02;5.43;;;13.70;99.90;;;;;;10597301;27;20571;-80
2022/05/25 15:49:33;;;;;;;11.65;8.15;;;13.60;99.90;;;;;;10575985;27;20165;-80
2022/05/25 15:54:37;;;;;;;13.15;7.60;;;13.60;99.90;;;;;;10586805;27;20035;-81
2022/05/25 15:59:37;;;;;;;11.88;6.72;;;13.60;99.90;;;;;;10599467;28;20394;-81
2022/05/25 16:04:40;;;;;;;16.75;10.05;;;13.50;99.90;;;;;;10599771;27;20028;-81
2022/05/25 16:09:45;;;;;;;10.35;7.47;;;13.50;99.90;;;;;;10604884;27;20040;-83
2022/05/25 16:14:51;;;;;;;14.77;8.70;;;13.50;99.90;;;;;;10624031;27;20409;-81
2022/05/25 16:19:52;;;;;;;13.88;8.45;;;13.50;99.90;;;;;;10600886;27;20034;-81
2022/05/25 16:24:52;;;;;;;17.60;10.23;;;13.50;99.90;;;;;;10601117;27;20648;-81
2022/05/25 16:29:53;;;;;;;24.33;12.35;;;13.50;99.90;;;;;;10599197;27;20039;-81
2022/05/25 16:34:53;;;;;;;24.00;12.02;;;13.50;99.90;;;;;;10607620;27;20035;-81
2022/05/25 16:39:54;;;;;;;23.80;13.65;;;13.50;99.90;;;;;;10621497;27;20417;-80
2022/05/25 16:44:55;;;;;;;21.33;13.00;;;13.40;99.90;;;;;;10608424;27;20115;-80
2022/05/25 16:49:55;;;;;;;23.17;13.85;;;13.50;99.90;;;;;;10592904;27;20106;-81
2022/05/25 16:54:57;;;;;;;16.95;12.38;;;13.50;99.90;;;;;;10608367;27;20031;-80
2022/05/25 16:59:58;;;;;;;17.77;13.02;;;13.50;99.90;;;;;;10612545;27;20151;-80
2022/05/25 17:05:01;;;;;;;18.92;12.30;;;13.40;99.90;;;;;;10598373;27;20562;-80
2022/05/25 17:10:03;;;;;;;15.20;10.25;;;13.50;99.90;;;;;;10587394;27;20080;-81
2022/05/25 17:15:06;;;;;;;16.17;11.77;;;13.50;99.90;;;;;;10611640;27;20031;-81
2022/05/25 17:25:27;;;;;;;15.07;11.40;;;13.50;99.90;;;;;;10590189;27;20498;-81
2022/05/25 17:30:29;;;;;;;19.10;13.60;;;13.60;99.90;;;;;;10589775;27;20063;-81
2022/05/25 17:35:30;;;;;;;25.13;16.48;;;13.60;99.90;;;;;;10599351;27;20529;-82
2022/05/25 17:45:52;;;;;;;25.30;16.85;;;13.70;99.90;;;;;;10583102;27;20027;-81
2022/05/25 17:50:54;;;;;;;26.55;16.55;;;13.80;99.90;;;;;;10608039;27;20043;-84
2022/05/25 17:55:55;;;;;;;29.27;16.23;;;13.80;99.90;;;;;;10588636;22;20414;-82
2022/05/25 18:00:55;;;;;;;25.45;15.68;;;13.80;99.90;;;;;;10574461;28;20028;-82
2022/05/25 18:05:56;;;;;;;26.45;19.13;;;13.80;99.90;;;;;;10574371;28;20489;-82
2022/05/25 18:10:57;;;;;;;21.58;15.63;;;13.70;99.90;;;;;;10573977;28;20407;-83
2022/05/25 18:16:02;;;;;;;21.95;15.15;;;13.60;99.90;;;;;;10573506;28;20023;-83
2022/05/25 18:21:04;;;;;;;27.23;17.17;;;13.50;99.90;;;;;;10575114;28;20378;-83
2022/05/25 18:26:04;;;;;;;22.70;16.50;;;13.40;99.90;;;;;;10573361;28;20443;-82
2022/05/25 18:31:05;;;;;;;23.85;16.80;;;13.30;99.90;;;;;;10572948;28;20038;-82
2022/05/25 18:36:24;;;;;;;20.77;14.85;;;13.30;99.90;;;;;;10572035;28;20050;-81
2022/05/25 18:41:26;;;;;;;23.13;17.38;;;13.20;99.90;;;;;;10555196;28;20030;-83
2022/05/25 18:46:26;;;;;;;28.02;17.85;;;13.10;99.90;;;;;;10572377;28;20391;-83
2022/05/25 18:51:28;;;;;;;23.13;16.88;;;13.10;99.90;;;;;;10553001;28;20040;-82
2022/05/25 18:56:29;;;;;;;28.23;18.95;;;13.00;99.90;;;;;;10534948;28;20471;-79
2022/05/25 19:01:29;;;;;;;32.28;20.25;;;12.90;99.90;;;;;;10555878;28;20080;-85
2022/05/25 19:06:30;;;;;;;30.13;19.15;;;12.90;99.90;;;;;;10573605;28;20550;-82
2022/05/25 19:11:31;;;;;;;24.35;16.25;;;12.90;99.90;;;;;;10567307;28;20036;-81
2022/05/25 19:16:32;;;;;;;30.27;20.27;;;12.80;99.90;;;;;;10547080;28;20040;-82
2022/05/25 19:21:42;;;;;;;33.13;21.48;;;12.80;99.90;;;;;;10540160;28;20050;-81
2022/05/25 19:26:43;;;;;;;33.30;22.70;;;12.80;99.90;;;;;;10572127;28;20040;-83
2022/05/25 19:31:44;;;;;;;39.63;24.90;;;12.80;99.90;;;;;;10545122;28;20039;-83
2022/05/25 19:36:49;;;;;;;55.80;31.75;;;12.80;99.90;;;;;;10555848;28;20042;-83
2022/05/25 19:41:52;;;;;;;56.73;34.40;;;12.80;99.90;;;;;;10543633;28;20027;-82
2022/05/25 19:46:54;;;;;;;60.17;34.60;;;12.70;99.90;;;;;;10522941;28;20111;-82
2022/05/25 19:51:55;;;;;;;64.35;34.72;;;12.70;99.90;;;;;;10513531;28;20088;-83
2022/05/25 19:56:56;;;;;;;69.10;36.67;;;12.60;99.90;;;;;;10551714;28;20051;-82
2022/05/25 20:01:56;;;;;;;69.80;37.92;;;12.50;99.90;;;;;;10546600;28;20031;-81
2022/05/25 20:06:57;;;;;;;71.50;38.63;;;12.40;99.90;;;;;;10529529;28;20028;-82
2022/05/25 20:11:57;;;;;;;77.68;41.55;;;12.30;99.90;;;;;;10541344;28;20058;-82
2022/05/25 20:16:59;;;;;;;80.82;40.65;;;12.20;99.90;;;;;;10554746;28;20036;-81
2022/05/25 20:22:00;;;;;;;66.68;36.53;;;12.20;99.90;;;;;;10540217;28;20031;-82
2022/05/25 20:27:01;;;;;;;104.25;38.90;;;12.10;99.90;;;;;;10539327;28;20597;-81
2022/05/25 20:32:02;;;;;;;88.72;38.38;;;11.90;99.90;;;;;;10528434;28;20052;-81
2022/05/25 20:37:03;;;;;;;82.60;36.45;;;11.60;99.90;;;;;;10542581;28;20032;-81
2022/05/25 20:42:04;;;;;;;64.07;34.53;;;11.40;99.90;;;;;;10532830;28;20495;-81
2022/05/25 20:47:04;;;;;;;244.68;52.58;;;11.20;99.90;;;;;;10549482;28;20094;-81
2022/05/25 20:52:05;;;;;;;193.70;57.95;;;11.00;99.90;;;;;;10546410;22;20040;-81
2022/05/25 20:57:06;;;;;;;99.25;49.55;;;10.90;99.90;;;;;;10615019;27;20035;-82
2022/05/25 21:02:07;;;;;;;347.08;78.57;;;10.80;99.90;;;;;;10618453;27;20806;-82
2022/05/25 21:07:08;;;;;;;112.22;50.67;;;10.70;99.90;;;;;;10619573;27;20073;-81
2022/05/25 21:12:14;;;;;;;154.70;57.47;;;10.60;99.90;;;;;;10620058;27;20537;-81
2022/05/25 21:17:16;;;;;;;168.98;57.05;;;10.60;99.90;;;;;;10618542;27;20031;-81
2022/05/25 21:22:17;;;;;;;99.03;46.70;;;10.50;99.90;;;;;;10619731;27;20054;-83
2022/05/25 21:27:18;;;;;;;127.13;48.85;;;10.50;99.90;;;;;;10619628;27;20015;-81
2022/05/25 21:37:39;;;;;;;134.65;57.25;;;10.50;99.90;;;;;;10618566;27;20039;-81
2022/05/25 21:42:40;;;;;;;142.55;60.28;;;10.70;99.90;;;;;;10619357;27;20027;-81
2022/05/25 21:53:00;;;;;;;734.40;117.07;;;10.90;99.90;;;;;;10618304;27;20432;-80
2022/05/25 21:58:01;;;;;;;838.17;128.82;;;10.90;99.90;;;;;;10618361;27;20035;-81
2022/05/25 22:03:01;;;;;;;337.13;78.93;;;10.60;99.90;;;;;;10591483;27;20051;-81
2022/05/25 22:08:02;;;;;;;105.72;50.03;;;10.50;99.90;;;;;;10574098;28;20028;-81
2022/05/25 22:13:03;;;;;;;437.98;78.85;;;10.40;99.90;;;;;;10604043;27;20035;-81
2022/05/25 22:18:05;;;;;;;208.50;67.45;;;10.40;99.90;;;;;;10574925;27;20099;-80
2022/05/25 22:23:05;;;;;;;121.63;49.90;;;10.40;99.90;;;;;;10591174;27;20463;-80
2022/05/25 22:28:07;;;;;;;167.95;56.78;;;10.40;99.90;;;;;;10595698;27;20046;-81
2022/05/25 22:33:07;;;;;;;265.30;59.13;;;10.30;99.90;;;;;;10591264;27;20118;-80
2022/05/25 22:38:08;;;;;;;155.73;63.47;;;10.30;99.90;;;;;;10605318;27;20035;-81
2022/05/25 22:43:09;;;;;;;119.10;56.45;;;10.20;99.90;;;;;;10574051;27;20027;-80
2022/05/25 22:48:10;;;;;;;116.95;53.92;;;10.30;99.90;;;;;;10573897;28;20039;-80
2022/05/25 22:53:10;;;;;;;146.88;61.15;;;10.30;99.90;;;;;;10573613;28;20060;-81
2022/05/25 22:58:11;;;;;;;138.07;60.42;;;10.30;99.90;;;;;;10586485;27;20110;-80
2022/05/25 23:03:11;;;;;;;127.53;59.17;;;10.30;99.90;;;;;;10574117;28;20044;-81
2022/05/25 23:08:12;;;;;;;774.63;121.18;;;10.30;99.90;;;;;;10572882;27;20043;-80
2022/05/25 23:13:13;;;;;;;369.67;85.03;;;10.20;99.90;;;;;;10583145;27;20031;-80
2022/05/25 23:18:14;;;;;;;535.90;109.83;;;10.00;99.90;;;;;;10611420;27;20106;-81
2022/05/25 23:23:15;;;;;;;138.17;60.60;;;9.70;99.90;;;;;;10615491;27;20363;-81
2022/05/25 23:33:37;;;;;;;356.95;81.03;;;9.60;99.90;;;;;;10572583;28;20051;-80
2022/05/25 23:38:39;;;;;;;371.93;88.87;;;9.60;99.90;;;;;;10579593;27;20035;-81
2022/05/25 23:43:48;;;;;;;312.70;81.80;;;9.60;99.90;;;;;;10593119;27;20115;-80
2022/05/25 23:48:50;;;;;;;266.10;79.80;;;9.60;99.90;;;;;;10571800;28;20050;-80
2022/05/25 23:53:51;;;;;;;122.13;56.13;;;9.50;99.90;;;;;;10582790;28;20062;-80
2022/05/25 23:58:56;;;;;;;152.57;60.40;;;9.50;99.90;;;;;;10594328;27;20038;-80
